sensor_id;sensor_type;location;lat;lon;timestamp;P1;durP1;ratioP1;P2;durP2;ratioP2
85781;SDS011;76219;50.128;8.728;2024-03-17T00:01:10;3.53;;;3.05;;
85781;SDS011;76219;50.128;8.728;2024-03-17T00:03:38;4.57;;;3.20;;
85781;SDS011;76219;50.128;8.728;2024-03-17T00:06:06;3.70;;;2.92;;
85781;SDS011;76219;50.128;8.728;2024-03-17T00:08:34;3.72;;;2.33;;
85781;SDS011;76219;50.128;8.728;2024-03-17T00:11:02;4.80;;;3.03;;
85781;SDS011;76219;50.128;8.728;2024-03-17T00:13:30;4.40;;;2.60;;
85781;SDS011;76219;50.128;8.728;2024-03-17T00:15:57;4.78;;;2.30;;
85781;SDS011;76219;50.128;8.728;2024-03-17T00:18:32;3.67;;;2.20;;
85781;SDS011;76219;50.128;8.728;2024-03-17T00:20:59;4.70;;;3.40;;
85781;SDS011;76219;50.128;8.728;2024-03-17T00:23:27;6.13;;;3.30;;
85781;SDS011;76219;50.128;8.728;2024-03-17T00:25:56;4.88;;;2.70;;
85781;SDS011;76219;50.128;8.728;2024-03-17T00:28:22;5.53;;;2.80;;
85781;SDS011;76219;50.128;8.728;2024-03-17T00:30:53;3.22;;;2.30;;
85781;SDS011;76219;50.128;8.728;2024-03-17T00:33:19;5.68;;;2.70;;
85781;SDS011;76219;50.128;8.728;2024-03-17T00:35:46;3.53;;;3.22;;
85781;SDS011;76219;50.128;8.728;2024-03-17T00:38:14;4.72;;;2.90;;
85781;SDS011;76219;50.128;8.728;2024-03-17T00:40:42;9.48;;;6.10;;
85781;SDS011;76219;50.128;8.728;2024-03-17T00:43:11;10.82;;;4.40;;
85781;SDS011;76219;50.128;8.728;2024-03-17T00:45:38;6.47;;;3.97;;
85781;SDS011;76219;50.128;8.728;2024-03-17T00:48:08;7.57;;;3.97;;
85781;SDS011;76219;50.128;8.728;2024-03-17T00:50:35;6.97;;;3.92;;
85781;SDS011;76219;50.128;8.728;2024-03-17T00:53:03;5.40;;;3.72;;
85781;SDS011;76219;50.128;8.728;2024-03-17T00:55:30;7.70;;;3.22;;
85781;SDS011;76219;50.128;8.728;2024-03-17T00:57:58;4.75;;;3.35;;
85781;SDS011;76219;50.128;8.728;2024-03-17T01:00:25;6.82;;;3.53;;
85781;SDS011;76219;50.128;8.728;2024-03-17T01:02:53;6.22;;;3.65;;
85781;SDS011;76219;50.128;8.728;2024-03-17T01:05:20;5.60;;;3.75;;
85781;SDS011;76219;50.128;8.728;2024-03-17T01:07:49;5.03;;;3.45;;
85781;SDS011;76219;50.128;8.728;2024-03-17T01:10:18;6.70;;;3.58;;
85781;SDS011;76219;50.128;8.728;2024-03-17T01:12:46;7.60;;;3.50;;
85781;SDS011;76219;50.128;8.728;2024-03-17T01:15:12;6.70;;;3.92;;
85781;SDS011;76219;50.128;8.728;2024-03-17T01:17:39;5.30;;;3.58;;
85781;SDS011;76219;50.128;8.728;2024-03-17T01:20:08;8.40;;;3.72;;
85781;SDS011;76219;50.128;8.728;2024-03-17T01:22:38;5.85;;;3.88;;
85781;SDS011;76219;50.128;8.728;2024-03-17T01:25:08;9.32;;;4.00;;
85781;SDS011;76219;50.128;8.728;2024-03-17T01:27:35;6.47;;;3.88;;
85781;SDS011;76219;50.128;8.728;2024-03-17T01:30:03;7.22;;;3.20;;
85781;SDS011;76219;50.128;8.728;2024-03-17T01:32:31;8.05;;;4.20;;
85781;SDS011;76219;50.128;8.728;2024-03-17T01:34:58;7.25;;;3.67;;
85781;SDS011;76219;50.128;8.728;2024-03-17T01:37:26;6.10;;;3.75;;
85781;SDS011;76219;50.128;8.728;2024-03-17T01:39:54;7.50;;;3.90;;
85781;SDS011;76219;50.128;8.728;2024-03-17T01:42:22;6.82;;;3.70;;
85781;SDS011;76219;50.128;8.728;2024-03-17T01:44:48;6.60;;;4.60;;
85781;SDS011;76219;50.128;8.728;2024-03-17T01:47:17;6.65;;;4.13;;
85781;SDS011;76219;50.128;8.728;2024-03-17T01:49:44;8.50;;;5.20;;
85781;SDS011;76219;50.128;8.728;2024-03-17T01:52:13;11.57;;;5.43;;
85781;SDS011;76219;50.128;8.728;2024-03-17T01:54:41;9.25;;;4.57;;
85781;SDS011;76219;50.128;8.728;2024-03-17T01:57:10;8.93;;;4.70;;
85781;SDS011;76219;50.128;8.728;2024-03-17T01:59:36;9.60;;;4.18;;
85781;SDS011;76219;50.128;8.728;2024-03-17T02:02:04;5.32;;;3.78;;
85781;SDS011;76219;50.128;8.728;2024-03-17T02:04:31;7.28;;;4.68;;
85781;SDS011;76219;50.128;8.728;2024-03-17T02:07:00;5.72;;;3.85;;
85781;SDS011;76219;50.128;8.728;2024-03-17T02:09:28;10.30;;;4.93;;
85781;SDS011;76219;50.128;8.728;2024-03-17T02:11:56;7.38;;;4.78;;
85781;SDS011;76219;50.128;8.728;2024-03-17T02:14:24;10.02;;;5.65;;
85781;SDS011;76219;50.128;8.728;2024-03-17T02:16:52;8.32;;;5.78;;
85781;SDS011;76219;50.128;8.728;2024-03-17T02:19:19;9.80;;;6.05;;
85781;SDS011;76219;50.128;8.728;2024-03-17T02:21:48;8.93;;;5.82;;
85781;SDS011;76219;50.128;8.728;2024-03-17T02:24:16;9.13;;;5.60;;
85781;SDS011;76219;50.128;8.728;2024-03-17T02:26:45;11.75;;;5.93;;
85781;SDS011;76219;50.128;8.728;2024-03-17T02:29:11;11.32;;;6.28;;
85781;SDS011;76219;50.128;8.728;2024-03-17T02:31:41;10.05;;;6.32;;
85781;SDS011;76219;50.128;8.728;2024-03-17T02:34:09;8.88;;;6.00;;
85781;SDS011;76219;50.128;8.728;2024-03-17T02:36:36;14.18;;;7.03;;
85781;SDS011;76219;50.128;8.728;2024-03-17T02:39:03;15.48;;;9.45;;
85781;SDS011;76219;50.128;8.728;2024-03-17T02:41:50;12.70;;;8.35;;
85781;SDS011;76219;50.128;8.728;2024-03-17T02:44:24;11.07;;;8.07;;
85781;SDS011;76219;50.128;8.728;2024-03-17T02:46:51;14.20;;;8.60;;
85781;SDS011;76219;50.128;8.728;2024-03-17T02:49:18;9.65;;;6.70;;
85781;SDS011;76219;50.128;8.728;2024-03-17T02:51:46;14.55;;;8.15;;
85781;SDS011;76219;50.128;8.728;2024-03-17T02:54:14;11.82;;;7.53;;
85781;SDS011;76219;50.128;8.728;2024-03-17T02:56:43;14.45;;;9.25;;
85781;SDS011;76219;50.128;8.728;2024-03-17T02:59:13;14.30;;;8.65;;
85781;SDS011;76219;50.128;8.728;2024-03-17T03:01:41;10.20;;;7.55;;
85781;SDS011;76219;50.128;8.728;2024-03-17T03:04:08;13.75;;;8.77;;
85781;SDS011;76219;50.128;8.728;2024-03-17T03:06:37;13.35;;;8.40;;
85781;SDS011;76219;50.128;8.728;2024-03-17T03:09:10;10.95;;;8.05;;
85781;SDS011;76219;50.128;8.728;2024-03-17T03:11:42;11.55;;;7.28;;
85781;SDS011;76219;50.128;8.728;2024-03-17T03:14:10;17.05;;;8.20;;
85781;SDS011;76219;50.128;8.728;2024-03-17T03:16:41;12.25;;;8.75;;
85781;SDS011;76219;50.128;8.728;2024-03-17T03:19:10;13.38;;;8.35;;
85781;SDS011;76219;50.128;8.728;2024-03-17T03:21:38;12.55;;;8.18;;
85781;SDS011;76219;50.128;8.728;2024-03-17T03:24:06;11.77;;;8.95;;
85781;SDS011;76219;50.128;8.728;2024-03-17T03:26:34;14.70;;;8.93;;
85781;SDS011;76219;50.128;8.728;2024-03-17T03:29:02;10.00;;;8.00;;
85781;SDS011;76219;50.128;8.728;2024-03-17T03:31:32;12.65;;;8.73;;
85781;SDS011;76219;50.128;8.728;2024-03-17T03:33:59;12.80;;;8.93;;
85781;SDS011;76219;50.128;8.728;2024-03-17T03:36:28;10.90;;;8.55;;
85781;SDS011;76219;50.128;8.728;2024-03-17T03:38:56;11.48;;;8.23;;
85781;SDS011;76219;50.128;8.728;2024-03-17T03:41:24;12.40;;;8.57;;
85781;SDS011;76219;50.128;8.728;2024-03-17T03:43:52;12.40;;;8.80;;
85781;SDS011;76219;50.128;8.728;2024-03-17T03:46:21;10.73;;;8.15;;
85781;SDS011;76219;50.128;8.728;2024-03-17T03:48:49;11.93;;;8.57;;
85781;SDS011;76219;50.128;8.728;2024-03-17T03:51:18;13.18;;;8.63;;
85781;SDS011;76219;50.128;8.728;2024-03-17T03:53:45;13.85;;;7.88;;
85781;SDS011;76219;50.128;8.728;2024-03-17T03:56:12;10.70;;;8.43;;
85781;SDS011;76219;50.128;8.728;2024-03-17T03:58:42;14.07;;;8.82;;
85781;SDS011;76219;50.128;8.728;2024-03-17T04:01:12;10.82;;;7.72;;
85781;SDS011;76219;50.128;8.728;2024-03-17T04:03:41;12.57;;;7.80;;
85781;SDS011;76219;50.128;8.728;2024-03-17T04:06:13;9.57;;;6.95;;
85781;SDS011;76219;50.128;8.728;2024-03-17T04:08:41;11.38;;;8.10;;
85781;SDS011;76219;50.128;8.728;2024-03-17T04:11:10;13.98;;;7.28;;
85781;SDS011;76219;50.128;8.728;2024-03-17T04:13:39;11.90;;;7.80;;
85781;SDS011;76219;50.128;8.728;2024-03-17T04:16:09;9.75;;;6.82;;
85781;SDS011;76219;50.128;8.728;2024-03-17T04:18:37;10.25;;;7.35;;
85781;SDS011;76219;50.128;8.728;2024-03-17T04:21:07;10.20;;;7.63;;
85781;SDS011;76219;50.128;8.728;2024-03-17T04:23:35;13.27;;;8.75;;
85781;SDS011;76219;50.128;8.728;2024-03-17T04:26:04;10.25;;;8.23;;
85781;SDS011;76219;50.128;8.728;2024-03-17T04:28:35;12.85;;;7.93;;
85781;SDS011;76219;50.128;8.728;2024-03-17T04:31:03;11.10;;;7.97;;
85781;SDS011;76219;50.128;8.728;2024-03-17T04:33:31;12.18;;;8.07;;
85781;SDS011;76219;50.128;8.728;2024-03-17T04:36:00;9.82;;;7.68;;
85781;SDS011;76219;50.128;8.728;2024-03-17T04:38:28;9.38;;;7.10;;
85781;SDS011;76219;50.128;8.728;2024-03-17T04:40:56;11.43;;;8.25;;
85781;SDS011;76219;50.128;8.728;2024-03-17T04:43:30;9.90;;;7.45;;
85781;SDS011;76219;50.128;8.728;2024-03-17T04:45:59;10.48;;;7.80;;
85781;SDS011;76219;50.128;8.728;2024-03-17T04:48:30;12.55;;;8.25;;
85781;SDS011;76219;50.128;8.728;2024-03-17T04:50:58;10.00;;;7.47;;
85781;SDS011;76219;50.128;8.728;2024-03-17T04:53:26;12.68;;;7.97;;
85781;SDS011;76219;50.128;8.728;2024-03-17T04:56:00;13.05;;;8.60;;
85781;SDS011;76219;50.128;8.728;2024-03-17T04:58:30;11.02;;;8.88;;
85781;SDS011;76219;50.128;8.728;2024-03-17T05:01:02;11.57;;;8.20;;
85781;SDS011;76219;50.128;8.728;2024-03-17T05:03:32;12.07;;;8.02;;
85781;SDS011;76219;50.128;8.728;2024-03-17T05:06:02;15.07;;;8.02;;
85781;SDS011;76219;50.128;8.728;2024-03-17T05:08:32;11.65;;;7.63;;
85781;SDS011;76219;50.128;8.728;2024-03-17T05:11:02;12.63;;;8.07;;
85781;SDS011;76219;50.128;8.728;2024-03-17T05:13:31;11.30;;;7.75;;
85781;SDS011;76219;50.128;8.728;2024-03-17T05:16:01;11.63;;;8.55;;
85781;SDS011;76219;50.128;8.728;2024-03-17T05:18:35;11.70;;;8.13;;
85781;SDS011;76219;50.128;8.728;2024-03-17T05:21:05;11.75;;;8.85;;
85781;SDS011;76219;50.128;8.728;2024-03-17T05:23:37;10.90;;;7.88;;
85781;SDS011;76219;50.128;8.728;2024-03-17T05:26:07;9.82;;;8.00;;
85781;SDS011;76219;50.128;8.728;2024-03-17T05:28:36;11.20;;;8.70;;
85781;SDS011;76219;50.128;8.728;2024-03-17T05:31:03;10.77;;;8.35;;
85781;SDS011;76219;50.128;8.728;2024-03-17T05:33:33;11.32;;;9.13;;
85781;SDS011;76219;50.128;8.728;2024-03-17T05:36:00;12.05;;;8.65;;
85781;SDS011;76219;50.128;8.728;2024-03-17T05:38:30;15.05;;;9.05;;
85781;SDS011;76219;50.128;8.728;2024-03-17T05:41:02;12.55;;;7.85;;
85781;SDS011;76219;50.128;8.728;2024-03-17T05:43:32;10.18;;;8.00;;
85781;SDS011;76219;50.128;8.728;2024-03-17T05:46:02;11.63;;;6.90;;
85781;SDS011;76219;50.128;8.728;2024-03-17T05:48:34;10.57;;;7.55;;
85781;SDS011;76219;50.128;8.728;2024-03-17T05:51:06;10.57;;;8.10;;
85781;SDS011;76219;50.128;8.728;2024-03-17T05:53:36;10.52;;;7.03;;
85781;SDS011;76219;50.128;8.728;2024-03-17T05:56:06;15.10;;;7.65;;
85781;SDS011;76219;50.128;8.728;2024-03-17T05:58:38;12.55;;;9.05;;
85781;SDS011;76219;50.128;8.728;2024-03-17T06:01:06;13.25;;;7.90;;
85781;SDS011;76219;50.128;8.728;2024-03-17T06:03:33;10.68;;;7.45;;
85781;SDS011;76219;50.128;8.728;2024-03-17T06:06:02;10.60;;;6.82;;
85781;SDS011;76219;50.128;8.728;2024-03-17T06:08:30;11.68;;;7.00;;
85781;SDS011;76219;50.128;8.728;2024-03-17T06:10:59;10.90;;;6.55;;
85781;SDS011;76219;50.128;8.728;2024-03-17T06:13:27;7.70;;;6.05;;
85781;SDS011;76219;50.128;8.728;2024-03-17T06:15:57;11.65;;;6.60;;
85781;SDS011;76219;50.128;8.728;2024-03-17T06:18:26;9.15;;;5.82;;
85781;SDS011;76219;50.128;8.728;2024-03-17T06:20:57;8.82;;;6.10;;
85781;SDS011;76219;50.128;8.728;2024-03-17T06:23:27;8.75;;;6.68;;
85781;SDS011;76219;50.128;8.728;2024-03-17T06:25:56;9.43;;;6.18;;
85781;SDS011;76219;50.128;8.728;2024-03-17T06:28:25;9.10;;;5.85;;
85781;SDS011;76219;50.128;8.728;2024-03-17T06:30:57;11.00;;;6.03;;
85781;SDS011;76219;50.128;8.728;2024-03-17T06:33:26;9.27;;;6.07;;
85781;SDS011;76219;50.128;8.728;2024-03-17T06:35:57;7.00;;;5.50;;
85781;SDS011;76219;50.128;8.728;2024-03-17T06:38:26;8.50;;;5.40;;
85781;SDS011;76219;50.128;8.728;2024-03-17T06:40:54;8.18;;;5.78;;
85781;SDS011;76219;50.128;8.728;2024-03-17T06:43:23;7.18;;;5.47;;
85781;SDS011;76219;50.128;8.728;2024-03-17T06:45:54;8.35;;;6.60;;
85781;SDS011;76219;50.128;8.728;2024-03-17T06:48:26;9.02;;;5.78;;
85781;SDS011;76219;50.128;8.728;2024-03-17T06:50:55;9.68;;;6.25;;
85781;SDS011;76219;50.128;8.728;2024-03-17T06:53:24;7.88;;;5.47;;
85781;SDS011;76219;50.128;8.728;2024-03-17T06:55:54;7.33;;;5.70;;
85781;SDS011;76219;50.128;8.728;2024-03-17T06:58:22;8.32;;;5.82;;
85781;SDS011;76219;50.128;8.728;2024-03-17T07:00:53;7.85;;;5.75;;
85781;SDS011;76219;50.128;8.728;2024-03-17T07:03:22;7.40;;;5.80;;
85781;SDS011;76219;50.128;8.728;2024-03-17T07:05:55;8.27;;;5.68;;
85781;SDS011;76219;50.128;8.728;2024-03-17T07:08:24;7.45;;;4.75;;
85781;SDS011;76219;50.128;8.728;2024-03-17T07:10:56;7.93;;;5.70;;
85781;SDS011;76219;50.128;8.728;2024-03-17T07:13:34;6.32;;;4.75;;
85781;SDS011;76219;50.128;8.728;2024-03-17T07:16:05;7.23;;;5.40;;
85781;SDS011;76219;50.128;8.728;2024-03-17T07:18:34;4.55;;;4.07;;
85781;SDS011;76219;50.128;8.728;2024-03-17T07:21:04;6.97;;;4.95;;
85781;SDS011;76219;50.128;8.728;2024-03-17T07:23:32;6.00;;;3.80;;
85781;SDS011;76219;50.128;8.728;2024-03-17T07:26:03;5.57;;;4.00;;
85781;SDS011;76219;50.128;8.728;2024-03-17T07:28:35;5.82;;;3.22;;
85781;SDS011;76219;50.128;8.728;2024-03-17T07:31:06;5.60;;;3.75;;
85781;SDS011;76219;50.128;8.728;2024-03-17T07:33:36;5.78;;;4.00;;
85781;SDS011;76219;50.128;8.728;2024-03-17T07:36:05;6.10;;;3.03;;
85781;SDS011;76219;50.128;8.728;2024-03-17T07:38:35;4.07;;;2.75;;
85781;SDS011;76219;50.128;8.728;2024-03-17T07:41:05;3.67;;;2.88;;
85781;SDS011;76219;50.128;8.728;2024-03-17T07:43:34;3.97;;;3.10;;
85781;SDS011;76219;50.128;8.728;2024-03-17T07:46:06;4.63;;;4.05;;
85781;SDS011;76219;50.128;8.728;2024-03-17T07:48:36;4.32;;;2.88;;
85781;SDS011;76219;50.128;8.728;2024-03-17T07:51:04;3.72;;;2.70;;
85781;SDS011;76219;50.128;8.728;2024-03-17T07:53:37;2.72;;;2.42;;
85781;SDS011;76219;50.128;8.728;2024-03-17T07:56:08;4.82;;;2.60;;
85781;SDS011;76219;50.128;8.728;2024-03-17T07:58:39;4.65;;;2.80;;
85781;SDS011;76219;50.128;8.728;2024-03-17T08:01:09;4.05;;;2.85;;
85781;SDS011;76219;50.128;8.728;2024-03-17T08:03:38;3.72;;;2.97;;
85781;SDS011;76219;50.128;8.728;2024-03-17T08:06:08;3.60;;;2.47;;
85781;SDS011;76219;50.128;8.728;2024-03-17T08:08:37;3.03;;;2.38;;
85781;SDS011;76219;50.128;8.728;2024-03-17T08:11:05;4.53;;;2.70;;
85781;SDS011;76219;50.128;8.728;2024-03-17T08:13:32;3.95;;;3.00;;
85781;SDS011;76219;50.128;8.728;2024-03-17T08:16:01;4.35;;;2.83;;
85781;SDS011;76219;50.128;8.728;2024-03-17T08:18:32;2.87;;;2.10;;
85781;SDS011;76219;50.128;8.728;2024-03-17T08:21:02;2.90;;;2.38;;
85781;SDS011;76219;50.128;8.728;2024-03-17T08:23:33;3.60;;;2.70;;
85781;SDS011;76219;50.128;8.728;2024-03-17T08:26:07;3.92;;;1.65;;
85781;SDS011;76219;50.128;8.728;2024-03-17T08:28:35;5.00;;;2.13;;
85781;SDS011;76219;50.128;8.728;2024-03-17T08:31:03;3.03;;;1.75;;
85781;SDS011;76219;50.128;8.728;2024-03-17T08:33:31;5.15;;;2.55;;
85781;SDS011;76219;50.128;8.728;2024-03-17T08:36:00;4.65;;;2.38;;
85781;SDS011;76219;50.128;8.728;2024-03-17T08:38:28;3.30;;;1.95;;
85781;SDS011;76219;50.128;8.728;2024-03-17T08:41:03;3.78;;;2.17;;
85781;SDS011;76219;50.128;8.728;2024-03-17T08:43:32;2.63;;;1.90;;
85781;SDS011;76219;50.128;8.728;2024-03-17T08:46:01;4.15;;;1.80;;
85781;SDS011;76219;50.128;8.728;2024-03-17T08:48:29;3.60;;;2.10;;
85781;SDS011;76219;50.128;8.728;2024-03-17T08:50:58;3.85;;;2.50;;
85781;SDS011;76219;50.128;8.728;2024-03-17T08:53:27;8.52;;;2.83;;
85781;SDS011;76219;50.128;8.728;2024-03-17T08:55:56;3.75;;;2.20;;
85781;SDS011;76219;50.128;8.728;2024-03-17T08:58:26;3.88;;;2.00;;
85781;SDS011;76219;50.128;8.728;2024-03-17T09:00:55;5.25;;;2.13;;
85781;SDS011;76219;50.128;8.728;2024-03-17T09:05:54;2.97;;;2.10;;
85781;SDS011;76219;50.128;8.728;2024-03-17T09:08:22;2.67;;;2.03;;
85781;SDS011;76219;50.128;8.728;2024-03-17T09:10:52;2.83;;;1.90;;
85781;SDS011;76219;50.128;8.728;2024-03-17T09:13:20;3.85;;;2.40;;
85781;SDS011;76219;50.128;8.728;2024-03-17T09:18:22;5.03;;;2.30;;
85781;SDS011;76219;50.128;8.728;2024-03-17T09:21:01;3.75;;;1.80;;
85781;SDS011;76219;50.128;8.728;2024-03-17T09:23:30;3.20;;;1.92;;
85781;SDS011;76219;50.128;8.728;2024-03-17T09:26:02;3.00;;;2.28;;
85781;SDS011;76219;50.128;8.728;2024-03-17T09:28:31;3.38;;;2.20;;
85781;SDS011;76219;50.128;8.728;2024-03-17T09:31:01;4.15;;;2.00;;
85781;SDS011;76219;50.128;8.728;2024-03-17T09:33:32;5.05;;;2.00;;
85781;SDS011;76219;50.128;8.728;2024-03-17T09:36:02;3.38;;;2.20;;
85781;SDS011;76219;50.128;8.728;2024-03-17T09:38:31;3.63;;;1.40;;
85781;SDS011;76219;50.128;8.728;2024-03-17T09:41:01;2.58;;;2.05;;
85781;SDS011;76219;50.128;8.728;2024-03-17T09:43:29;3.38;;;1.80;;
85781;SDS011;76219;50.128;8.728;2024-03-17T09:46:03;3.17;;;1.90;;
85781;SDS011;76219;50.128;8.728;2024-03-17T09:48:31;3.15;;;1.98;;
85781;SDS011;76219;50.128;8.728;2024-03-17T09:51:00;3.40;;;2.50;;
85781;SDS011;76219;50.128;8.728;2024-03-17T09:53:29;3.97;;;2.10;;
85781;SDS011;76219;50.128;8.728;2024-03-17T09:55:58;2.45;;;1.90;;
85781;SDS011;76219;50.128;8.728;2024-03-17T09:58:29;3.13;;;1.73;;
85781;SDS011;76219;50.128;8.728;2024-03-17T10:00:57;1.95;;;1.75;;
85781;SDS011;76219;50.128;8.728;2024-03-17T10:03:43;6.60;;;4.07;;
85781;SDS011;76219;50.128;8.728;2024-03-17T10:06:12;4.22;;;2.20;;
85781;SDS011;76219;50.128;8.728;2024-03-17T10:08:41;4.80;;;2.42;;
85781;SDS011;76219;50.128;8.728;2024-03-17T10:11:10;5.32;;;2.65;;
85781;SDS011;76219;50.128;8.728;2024-03-17T10:13:39;2.58;;;2.20;;
85781;SDS011;76219;50.128;8.728;2024-03-17T10:16:13;3.15;;;2.65;;
85781;SDS011;76219;50.128;8.728;2024-03-17T10:19:00;6.25;;;2.17;;
85781;SDS011;76219;50.128;8.728;2024-03-17T10:21:37;4.63;;;2.80;;
85781;SDS011;76219;50.128;8.728;2024-03-17T10:24:06;5.68;;;2.40;;
85781;SDS011;76219;50.128;8.728;2024-03-17T10:26:36;3.45;;;2.35;;
85781;SDS011;76219;50.128;8.728;2024-03-17T10:29:18;3.05;;;2.33;;
85781;SDS011;76219;50.128;8.728;2024-03-17T10:31:52;5.10;;;2.08;;
85781;SDS011;76219;50.128;8.728;2024-03-17T10:34:22;3.97;;;2.58;;
85781;SDS011;76219;50.128;8.728;2024-03-17T10:36:52;2.22;;;2.03;;
85781;SDS011;76219;50.128;8.728;2024-03-17T10:39:37;3.92;;;3.00;;
85781;SDS011;76219;50.128;8.728;2024-03-17T10:42:07;3.78;;;3.00;;
85781;SDS011;76219;50.128;8.728;2024-03-17T10:44:36;4.50;;;3.17;;
85781;SDS011;76219;50.128;8.728;2024-03-17T10:47:04;4.63;;;3.22;;
85781;SDS011;76219;50.128;8.728;2024-03-17T10:49:37;3.90;;;1.98;;
85781;SDS011;76219;50.128;8.728;2024-03-17T10:52:05;3.70;;;2.65;;
85781;SDS011;76219;50.128;8.728;2024-03-17T10:54:36;3.83;;;2.38;;
85781;SDS011;76219;50.128;8.728;2024-03-17T10:57:07;2.88;;;1.98;;
85781;SDS011;76219;50.128;8.728;2024-03-17T10:59:48;3.90;;;2.25;;
85781;SDS011;76219;50.128;8.728;2024-03-17T11:02:20;3.17;;;2.13;;
85781;SDS011;76219;50.128;8.728;2024-03-17T11:04:53;3.25;;;2.15;;
85781;SDS011;76219;50.128;8.728;2024-03-17T11:07:22;3.20;;;1.70;;
85781;SDS011;76219;50.128;8.728;2024-03-17T11:09:51;4.80;;;1.90;;
85781;SDS011;76219;50.128;8.728;2024-03-17T11:12:39;2.47;;;1.83;;
85781;SDS011;76219;50.128;8.728;2024-03-17T11:21:20;7.35;;;3.35;;
85781;SDS011;76219;50.128;8.728;2024-03-17T11:23:54;2.75;;;1.80;;
85781;SDS011;76219;50.128;8.728;2024-03-17T11:26:28;3.25;;;1.70;;
85781;SDS011;76219;50.128;8.728;2024-03-17T11:28:57;3.88;;;1.95;;
85781;SDS011;76219;50.128;8.728;2024-03-17T11:31:32;4.32;;;1.92;;
85781;SDS011;76219;50.128;8.728;2024-03-17T11:34:03;3.15;;;1.88;;
85781;SDS011;76219;50.128;8.728;2024-03-17T11:36:36;4.05;;;3.20;;
85781;SDS011;76219;50.128;8.728;2024-03-17T11:39:05;4.97;;;3.10;;
85781;SDS011;76219;50.128;8.728;2024-03-17T11:41:35;4.15;;;1.65;;
85781;SDS011;76219;50.128;8.728;2024-03-17T11:44:12;5.55;;;2.53;;
85781;SDS011;76219;50.128;8.728;2024-03-17T11:47:00;4.30;;;1.80;;
85781;SDS011;76219;50.128;8.728;2024-03-17T11:49:30;3.00;;;2.40;;
85781;SDS011;76219;50.128;8.728;2024-03-17T11:52:01;3.70;;;1.65;;
85781;SDS011;76219;50.128;8.728;2024-03-17T11:54:31;5.35;;;2.53;;
85781;SDS011;76219;50.128;8.728;2024-03-17T11:57:03;3.42;;;1.75;;
85781;SDS011;76219;50.128;8.728;2024-03-17T11:59:33;4.75;;;2.13;;
85781;SDS011;76219;50.128;8.728;2024-03-17T12:02:00;2.45;;;1.58;;
85781;SDS011;76219;50.128;8.728;2024-03-17T12:04:30;2.92;;;2.20;;
85781;SDS011;76219;50.128;8.728;2024-03-17T12:06:58;3.67;;;2.28;;
85781;SDS011;76219;50.128;8.728;2024-03-17T12:09:28;3.50;;;2.08;;
85781;SDS011;76219;50.128;8.728;2024-03-17T12:11:58;3.08;;;1.88;;
85781;SDS011;76219;50.128;8.728;2024-03-17T12:14:26;7.45;;;4.10;;
85781;SDS011;76219;50.128;8.728;2024-03-17T12:16:54;3.33;;;1.95;;
85781;SDS011;76219;50.128;8.728;2024-03-17T12:19:22;2.60;;;2.00;;
85781;SDS011;76219;50.128;8.728;2024-03-17T12:21:52;5.07;;;2.00;;
85781;SDS011;76219;50.128;8.728;2024-03-17T12:24:22;4.57;;;2.47;;
85781;SDS011;76219;50.128;8.728;2024-03-17T12:26:52;5.95;;;3.90;;
85781;SDS011;76219;50.128;8.728;2024-03-17T12:29:23;4.97;;;2.50;;
85781;SDS011;76219;50.128;8.728;2024-03-17T12:31:53;3.85;;;2.28;;
85781;SDS011;76219;50.128;8.728;2024-03-17T12:34:22;6.00;;;3.15;;
85781;SDS011;76219;50.128;8.728;2024-03-17T12:36:53;3.85;;;2.42;;
85781;SDS011;76219;50.128;8.728;2024-03-17T12:39:21;3.60;;;2.40;;
85781;SDS011;76219;50.128;8.728;2024-03-17T12:44:35;3.05;;;2.67;;
85781;SDS011;76219;50.128;8.728;2024-03-17T12:47:03;6.30;;;2.70;;
85781;SDS011;76219;50.128;8.728;2024-03-17T12:49:33;2.83;;;2.50;;
85781;SDS011;76219;50.128;8.728;2024-03-17T12:52:02;3.38;;;2.80;;
85781;SDS011;76219;50.128;8.728;2024-03-17T12:54:30;3.90;;;2.63;;
85781;SDS011;76219;50.128;8.728;2024-03-17T12:57:07;3.42;;;2.35;;
85781;SDS011;76219;50.128;8.728;2024-03-17T12:59:53;3.55;;;2.40;;
85781;SDS011;76219;50.128;8.728;2024-03-17T13:02:41;3.35;;;2.20;;
85781;SDS011;76219;50.128;8.728;2024-03-17T13:05:16;3.60;;;2.63;;
85781;SDS011;76219;50.128;8.728;2024-03-17T13:07:44;3.42;;;2.88;;
85781;SDS011;76219;50.128;8.728;2024-03-17T13:10:16;4.20;;;3.10;;
85781;SDS011;76219;50.128;8.728;2024-03-17T13:12:45;3.90;;;2.58;;
85781;SDS011;76219;50.128;8.728;2024-03-17T13:15:13;4.13;;;2.78;;
85781;SDS011;76219;50.128;8.728;2024-03-17T13:17:42;4.65;;;2.78;;
85781;SDS011;76219;50.128;8.728;2024-03-17T13:20:12;4.63;;;2.58;;
85781;SDS011;76219;50.128;8.728;2024-03-17T13:22:42;3.13;;;2.50;;
85781;SDS011;76219;50.128;8.728;2024-03-17T13:25:14;3.95;;;2.60;;
85781;SDS011;76219;50.128;8.728;2024-03-17T13:27:43;3.10;;;1.92;;
85781;SDS011;76219;50.128;8.728;2024-03-17T13:30:13;3.75;;;2.55;;
85781;SDS011;76219;50.128;8.728;2024-03-17T13:32:43;4.82;;;2.35;;
85781;SDS011;76219;50.128;8.728;2024-03-17T13:35:14;5.97;;;3.15;;
85781;SDS011;76219;50.128;8.728;2024-03-17T13:37:44;3.08;;;2.53;;
85781;SDS011;76219;50.128;8.728;2024-03-17T13:40:14;4.15;;;2.63;;
85781;SDS011;76219;50.128;8.728;2024-03-17T13:42:44;4.82;;;3.30;;
85781;SDS011;76219;50.128;8.728;2024-03-17T13:45:15;7.15;;;3.15;;
85781;SDS011;76219;50.128;8.728;2024-03-17T13:47:46;3.72;;;2.70;;
85781;SDS011;76219;50.128;8.728;2024-03-17T13:50:21;3.83;;;2.42;;
85781;SDS011;76219;50.128;8.728;2024-03-17T13:52:50;3.75;;;2.67;;
85781;SDS011;76219;50.128;8.728;2024-03-17T13:55:18;4.38;;;2.50;;
85781;SDS011;76219;50.128;8.728;2024-03-17T13:57:49;3.17;;;2.50;;
85781;SDS011;76219;50.128;8.728;2024-03-17T14:00:26;5.05;;;2.65;;
85781;SDS011;76219;50.128;8.728;2024-03-17T14:02:54;5.72;;;2.80;;
85781;SDS011;76219;50.128;8.728;2024-03-17T14:05:26;5.38;;;2.75;;
85781;SDS011;76219;50.128;8.728;2024-03-17T14:07:54;4.22;;;2.63;;
85781;SDS011;76219;50.128;8.728;2024-03-17T14:10:25;5.82;;;3.15;;
85781;SDS011;76219;50.128;8.728;2024-03-17T14:12:55;5.40;;;2.90;;
85781;SDS011;76219;50.128;8.728;2024-03-17T14:15:24;5.13;;;3.35;;
85781;SDS011;76219;50.128;8.728;2024-03-17T14:17:52;3.35;;;2.38;;
85781;SDS011;76219;50.128;8.728;2024-03-17T14:20:20;4.88;;;2.67;;
85781;SDS011;76219;50.128;8.728;2024-03-17T14:22:50;4.38;;;2.38;;
85781;SDS011;76219;50.128;8.728;2024-03-17T14:25:20;4.30;;;3.15;;
85781;SDS011;76219;50.128;8.728;2024-03-17T14:27:48;4.80;;;2.63;;
85781;SDS011;76219;50.128;8.728;2024-03-17T14:30:19;4.97;;;2.50;;
85781;SDS011;76219;50.128;8.728;2024-03-17T14:32:48;5.00;;;3.03;;
85781;SDS011;76219;50.128;8.728;2024-03-17T14:35:16;4.35;;;2.55;;
85781;SDS011;76219;50.128;8.728;2024-03-17T14:37:52;6.25;;;3.08;;
85781;SDS011;76219;50.128;8.728;2024-03-17T14:42:51;4.60;;;2.95;;
85781;SDS011;76219;50.128;8.728;2024-03-17T14:45:19;4.80;;;3.55;;
85781;SDS011;76219;50.128;8.728;2024-03-17T14:47:50;7.88;;;4.13;;
85781;SDS011;76219;50.128;8.728;2024-03-17T14:50:19;4.93;;;3.03;;
85781;SDS011;76219;50.128;8.728;2024-03-17T14:52:49;4.13;;;2.92;;
85781;SDS011;76219;50.128;8.728;2024-03-17T14:55:17;6.00;;;4.35;;
85781;SDS011;76219;50.128;8.728;2024-03-17T14:57:48;5.07;;;3.22;;
85781;SDS011;76219;50.128;8.728;2024-03-17T15:00:17;5.43;;;3.22;;
85781;SDS011;76219;50.128;8.728;2024-03-17T15:02:45;3.65;;;3.28;;
85781;SDS011;76219;50.128;8.728;2024-03-17T15:05:15;8.07;;;4.03;;
85781;SDS011;76219;50.128;8.728;2024-03-17T15:07:46;8.57;;;3.28;;
85781;SDS011;76219;50.128;8.728;2024-03-17T15:10:14;7.10;;;3.78;;
85781;SDS011;76219;50.128;8.728;2024-03-17T15:12:46;5.63;;;3.40;;
85781;SDS011;76219;50.128;8.728;2024-03-17T15:15:16;6.75;;;3.15;;
85781;SDS011;76219;50.128;8.728;2024-03-17T15:17:45;6.82;;;3.00;;